Changewater, New Jersey
Current Conditions -  °F | °C
As of 5:53 AM on Wednesday 26 Nov 2014 (Local Time) from KSMQ Reporting Station
Light Rain Light Rain  
Wind Chill: 41°   Ceiling: 7500
Heat Index: 46°   Visibility: 10mi
Dew Point: 29°   Wind: 10mph
Humidity: 51%   Direction: 30°NNE
Pressure: 30.08"   Gusts: NA
Location:  40.74°N, 74.94°W
Report Text: KSMQ 261053Z AUTO 03009KT 10SM -RA OVC075 08/M02 A3008 RMK AO2 RAB53 SLP189 P0000 T00781017
Loading
Personal Weather Stations






























Interactive Weather Map New forecast layout! Learn more

10-Day Weather Forecast

Advertisements
Track Severe Weather on mobile